Time,TemperatureF,DewpointF,PressureIn,WindDirection,WindDirectionDegrees,WindSpeedMPH,WindSpeedGustMPH,Humidity,HourlyPrecipIn,Conditions,Clouds,dailyrainin,SolarRadiationWatts/m^2,SoftwareType,DateUTC
2013-01-28 00:21:00,-20.0,-28.0,-100.00,East,89,0.0,0.0,65,-99.99,,,0.00,0.000000,,2013-01-28 09:21:00,
2013-01-28 01:21:00,-21.0,-29.0,-100.00,East,86,0.0,0.0,64,-99.99,,,-99.99,,,2013-01-28 10:21:00,
2013-01-28 02:22:00,-22.0,-31.0,-100.00,East,91,0.0,0.0,63,-99.99,,,0.00,0.000000,,2013-01-28 11:22:00,
2013-01-28 03:23:00,-22.0,-31.0,-100.00,ESE,103,0.0,0.0,63,-99.99,,,0.00,0.000000,,2013-01-28 12:23:00,
2013-01-28 04:22:00,-22.0,-31.0,-100.00,ENE,68,0.0,0.0,63,-99.99,,,0.00,0.000000,,2013-01-28 13:22:00,
2013-01-28 04:33:00,-22.0,-31.0,-100.00,ENE,68,0.0,0.0,63,-99.99,,,0.00,0.000000,,2013-01-28 13:33:00,
2013-01-28 05:22:00,-22.0,-31.0,-100.00,ENE,70,0.0,0.0,63,-99.99,,,-99.99,0.000000,,2013-01-28 14:22:00,
2013-01-28 06:23:00,-21.0,-29.0,-100.00,ENE,74,0.0,0.0,64,-99.99,,,0.00,0.000000,,2013-01-28 15:23:00,
2013-01-28 07:22:00,-22.0,-31.0,-100.00,East,85,0.0,0.0,62,-99.99,,,0.00,0.000000,,2013-01-28 16:22:00,
2013-01-28 08:22:00,-21.0,-29.0,-100.00,East,83,0.0,0.0,64,-99.99,,,0.00,0.000000,,2013-01-28 17:22:00,
2013-01-28 09:23:00,-20.0,-29.0,-100.00,ESE,109,0.0,0.0,63,-99.99,,,0.00,0.000000,,2013-01-28 18:23:00,
2013-01-28 10:22:00,-18.0,-26.0,-100.00,East,96,0.0,0.0,65,-99.99,,,0.00,2.000000,,2013-01-28 19:22:00,
2013-01-28 12:22:00,-5.0,-12.0,-100.00,East,91,0.0,0.0,72,-99.99,,,0.00,21.000000,,2013-01-28 21:22:00,
2013-01-28 12:33:00,-5.0,-12.0,-100.00,East,91,0.0,0.0,72,-99.99,,,0.00,21.000000,,2013-01-28 21:33:00,
2013-01-28 12:42:00,-5.0,-12.0,-100.00,East,91,0.0,0.0,72,-99.99,,,0.00,21.000000,,2013-01-28 21:42:00,
2013-01-28 12:52:00,-5.0,-12.0,-100.00,East,91,0.0,0.0,72,-99.99,,,0.00,21.000000,,2013-01-28 21:52:00,
2013-01-28 13:22:00,1.0,-6.0,-100.00,West,276,0.0,1.0,72,0.00,,,0.00,30.000000,,2013-01-28 22:22:00,
2013-01-28 13:32:00,1.0,-6.0,-100.00,West,276,0.0,1.0,72,0.00,,,0.00,30.000000,,2013-01-28 22:32:00,
2013-01-28 13:42:00,1.0,-6.0,-100.00,West,276,0.0,1.0,72,0.00,,,0.00,30.000000,,2013-01-28 22:42:00,
2013-01-28 13:52:00,1.0,-6.0,-100.00,West,276,0.0,1.0,72,0.00,,,0.00,30.000000,,2013-01-28 22:52:00,
2013-01-28 14:22:00,5.0,-6.0,-100.00,ENE,69,1.0,1.0,59,0.00,,,0.00,28.000000,,2013-01-28 23:22:00,
2013-01-28 14:32:00,5.0,-6.0,-100.00,ENE,69,1.0,1.0,59,0.00,,,0.00,28.000000,,2013-01-28 23:32:00,
2013-01-28 14:42:00,5.0,-6.0,-100.00,ENE,69,1.0,1.0,59,0.00,,,0.00,28.000000,,2013-01-28 23:42:00,
2013-01-28 14:52:00,5.0,-6.0,-100.00,ENE,69,1.0,1.0,59,0.00,,,0.00,28.000000,,2013-01-28 23:52:00,
2013-01-28 15:22:00,5.0,-9.0,-100.00,North,10,1.0,2.0,51,0.00,,,0.00,29.000000,,2013-01-29 00:22:00,
2013-01-28 15:32:00,5.0,-9.0,-100.00,North,10,1.0,2.0,51,0.00,,,0.00,29.000000,,2013-01-29 00:32:00,
2013-01-28 15:42:00,5.0,-9.0,-100.00,North,10,1.0,2.0,51,0.00,,,0.00,29.000000,,2013-01-29 00:42:00,
2013-01-28 15:51:00,5.0,-9.0,-100.00,North,10,1.0,2.0,51,0.00,,,0.00,29.000000,,2013-01-29 00:51:00,
2013-01-28 16:22:00,5.0,-8.0,-100.00,NNE,23,1.0,1.0,55,0.00,,,0.00,9.000000,,2013-01-29 01:22:00,
2013-01-28 16:32:00,5.0,-8.0,-100.00,NNE,23,1.0,1.0,55,0.00,,,0.00,9.000000,,2013-01-29 01:32:00,
2013-01-28 16:42:00,5.0,-8.0,-100.00,NNE,23,1.0,1.0,55,0.00,,,0.00,9.000000,,2013-01-29 01:42:00,
2013-01-28 16:52:00,5.0,-8.0,-100.00,NNE,23,1.0,1.0,55,0.00,,,0.00,9.000000,,2013-01-29 01:52:00,
2013-01-28 17:21:00,5.0,-7.0,-100.00,NE,54,1.0,1.0,57,0.00,,,0.00,2.000000,,2013-01-29 02:21:00,
2013-01-28 17:32:00,5.0,-7.0,-100.00,NE,54,1.0,1.0,57,0.00,,,0.00,2.000000,,2013-01-29 02:32:00,
2013-01-28 17:41:00,5.0,-7.0,-100.00,NE,54,1.0,1.0,57,0.00,,,0.00,2.000000,,2013-01-29 02:41:00,
2013-01-28 17:52:00,5.0,-7.0,-100.00,NE,54,1.0,1.0,57,0.00,,,0.00,2.000000,,2013-01-29 02:52:00,
2013-01-28 18:21:00,5.0,-5.0,-100.00,SSW,212,0.0,1.0,63,0.00,,,0.00,0.000000,,2013-01-29 03:21:00,
2013-01-28 18:31:00,5.0,-5.0,-100.00,SSW,212,0.0,1.0,63,0.00,,,0.00,0.000000,,2013-01-29 03:31:00,
2013-01-28 18:41:00,5.0,-5.0,-100.00,SSW,212,0.0,1.0,63,0.00,,,0.00,0.000000,,2013-01-29 03:41:00,
2013-01-28 18:52:00,5.0,-5.0,-100.00,SSW,212,0.0,1.0,63,0.00,,,0.00,0.000000,,2013-01-29 03:52:00,
2013-01-28 19:21:00,5.0,-4.0,-100.00,North,11,0.0,1.0,66,0.00,,,0.00,0.000000,,2013-01-29 04:21:00,
2013-01-28 19:32:00,5.0,-4.0,-100.00,North,11,0.0,1.0,66,0.00,,,0.00,0.000000,,2013-01-29 04:32:00,
2013-01-28 19:41:00,5.0,-4.0,-100.00,North,11,0.0,1.0,66,0.00,,,0.00,0.000000,,2013-01-29 04:41:00,
2013-01-28 19:51:00,5.0,-4.0,-100.00,North,11,0.0,1.0,66,0.00,,,0.00,0.000000,,2013-01-29 04:51:00,
2013-01-28 20:00:00,5.0,-4.0,-100.00,North,7,1.0,3.0,66,-99.99,,,-99.99,,,2013-01-29 05:00:00,
2013-01-28 20:21:00,5.0,-4.0,-100.00,North,7,1.0,3.0,66,0.00,,,0.00,0.000000,,2013-01-29 05:21:00,
2013-01-28 20:32:00,5.0,-4.0,-100.00,North,7,1.0,3.0,66,0.00,,,0.00,0.000000,,2013-01-29 05:32:00,
2013-01-28 20:42:00,5.0,-4.0,-100.00,North,7,1.0,3.0,66,0.00,,,0.00,0.000000,,2013-01-29 05:42:00,
2013-01-28 20:52:00,5.0,-4.0,-100.00,North,7,1.0,3.0,66,0.00,,,0.00,0.000000,,2013-01-29 05:52:00,
2013-01-28 21:21:00,5.0,-1.0,-100.00,North,7,2.0,4.0,76,0.00,,,0.00,0.000000,,2013-01-29 06:21:00,
2013-01-28 21:31:00,5.0,-1.0,-100.00,North,7,2.0,4.0,76,0.00,,,0.00,0.000000,,2013-01-29 06:31:00,
2013-01-28 21:41:00,5.0,-1.0,-100.00,North,7,2.0,4.0,76,0.00,,,0.00,0.000000,,2013-01-29 06:41:00,
2013-01-28 21:52:00,5.0,-1.0,-100.00,North,7,2.0,4.0,76,0.00,,,0.00,0.000000,,2013-01-29 06:52:00,
2013-01-28 22:21:00,5.0,0.0,-100.00,North,1,1.0,2.0,78,0.00,,,0.00,0.000000,,2013-01-29 07:21:00,
2013-01-28 22:31:00,5.0,0.0,-100.00,North,1,1.0,2.0,78,0.00,,,0.00,0.000000,,2013-01-29 07:31:00,
2013-01-28 22:41:00,5.0,0.0,-100.00,North,1,1.0,2.0,78,0.00,,,0.00,0.000000,,2013-01-29 07:41:00,
2013-01-28 22:51:00,5.0,0.0,-100.00,North,1,1.0,2.0,78,0.00,,,0.00,0.000000,,2013-01-29 07:51:00,
2013-01-28 23:21:00,5.0,0.0,-100.00,North,7,1.0,2.0,79,0.00,,,0.00,0.000000,,2013-01-29 08:21:00,
2013-01-28 23:31:00,5.0,0.0,-100.00,North,7,1.0,2.0,79,0.00,,,0.00,0.000000,,2013-01-29 08:31:00,
2013-01-28 23:41:00,5.0,0.0,-100.00,North,7,1.0,2.0,79,0.00,,,0.00,0.000000,,2013-01-29 08:41:00,
2013-01-28 23:51:00,5.0,0.0,-100.00,North,7,1.0,2.0,79,0.00,,,0.00,0.000000,,2013-01-29 08:51:00,